createdAt,value
2018-09-15T00:02:05.049Z,100987.91
2018-09-15T00:04:38.361Z,100986.73
2018-09-15T00:07:11.694Z,100990.25
2018-09-15T00:09:45.039Z,100990.30
2018-09-15T00:12:18.342Z,100998.92
2018-09-15T00:14:51.647Z,100990.83
2018-09-15T00:17:25.216Z,100995.12
2018-09-15T00:19:58.560Z,100996.44
2018-09-15T00:22:31.850Z,101007.02
2018-09-15T00:25:05.534Z,101001.80
2018-09-15T00:27:38.830Z,101002.98
2018-09-15T00:30:12.230Z,101010.16
2018-09-15T00:32:45.540Z,101008.82
2018-09-15T00:35:18.857Z,101007.00
2018-09-15T00:37:52.166Z,101007.38
2018-09-15T00:40:25.524Z,101011.14
2018-09-15T00:42:58.814Z,101009.86
2018-09-15T00:45:32.149Z,101011.09
2018-09-15T00:48:05.457Z,101013.58
2018-09-15T00:50:38.797Z,101012.67
2018-09-15T00:53:12.098Z,101019.52
2018-09-15T00:55:45.433Z,101009.64
2018-09-15T00:58:18.733Z,101009.95
2018-09-15T01:00:52.045Z,101015.47
2018-09-15T01:03:25.332Z,101012.04
2018-09-15T01:05:58.725Z,101011.95
2018-09-15T01:08:32.018Z,101010.61
2018-09-15T01:11:05.353Z,101001.98
2018-09-15T01:13:38.649Z,101003.66
2018-09-15T01:16:11.962Z,101001.48
2018-09-15T01:18:45.257Z,101006.23
2018-09-15T01:21:18.565Z,100994.72
2018-09-15T01:23:51.890Z,100994.30
2018-09-15T01:26:25.205Z,100996.09
2018-09-15T01:28:58.556Z,101003.97
2018-09-15T01:31:31.875Z,100999.39
2018-09-15T01:34:05.178Z,100995.23
2018-09-15T01:36:38.502Z,100999.16
2018-09-15T01:39:11.798Z,100995.84
2018-09-15T01:41:45.185Z,100987.83
2018-09-15T01:44:18.520Z,100993.05
2018-09-15T01:46:51.827Z,100997.56
2018-09-15T01:49:25.118Z,101004.19
2018-09-15T01:51:58.457Z,101003.95
2018-09-15T01:54:31.820Z,101000.63
2018-09-15T01:57:05.145Z,101003.41
2018-09-15T01:59:38.522Z,101012.14
2018-09-15T02:02:11.842Z,101009.23
2018-09-15T02:04:45.137Z,101012.42
2018-09-15T02:07:18.526Z,101018.98
2018-09-15T02:09:51.903Z,101015.16
2018-09-15T02:12:25.430Z,101014.89
2018-09-15T02:14:58.717Z,101011.89
2018-09-15T02:17:32.022Z,101010.66
2018-09-15T02:20:05.303Z,101017.98
2018-09-15T02:22:38.670Z,101017.20
2018-09-15T02:25:11.946Z,101020.67
2018-09-15T02:27:45.281Z,101023.31
2018-09-15T02:30:18.589Z,101017.96
2018-09-15T02:32:51.991Z,101026.09
2018-09-15T02:35:25.313Z,101021.86
2018-09-15T02:37:58.645Z,101022.83
2018-09-15T02:40:32.031Z,101018.54
2018-09-15T02:43:05.353Z,101014.69
2018-09-15T02:45:38.643Z,101011.27
2018-09-15T02:48:12.109Z,101012.58
2018-09-15T02:50:45.399Z,101013.99
2018-09-15T02:53:19.814Z,101008.09
2018-09-15T02:55:53.156Z,101009.47
2018-09-15T02:58:26.482Z,101010.82
2018-09-15T03:00:59.773Z,101011.34
2018-09-15T03:03:33.085Z,101015.75
2018-09-15T03:06:06.437Z,101018.77
2018-09-15T03:08:39.726Z,101020.55
2018-09-15T03:11:13.044Z,101019.66
2018-09-15T03:13:46.380Z,101012.86
2018-09-15T03:16:19.684Z,101011.58
2018-09-15T03:18:53.680Z,101006.51
2018-09-15T03:21:26.992Z,101011.64
2018-09-15T03:24:00.321Z,101016.83
2018-09-15T03:26:33.616Z,101017.16
2018-09-15T03:29:06.949Z,101019.67
2018-09-15T03:31:40.270Z,101013.19
2018-09-15T03:34:13.589Z,101018.66
2018-09-15T03:36:46.893Z,101008.33
2018-09-15T03:39:20.213Z,101015.95
2018-09-15T03:41:53.588Z,101014.17
2018-09-15T03:44:26.850Z,101014.04
2018-09-15T03:47:00.160Z,101016.54
2018-09-15T03:49:33.490Z,101012.12
2018-09-15T03:52:06.789Z,101014.18
2018-09-15T03:54:40.104Z,101011.95
2018-09-15T03:57:13.453Z,101012.74
2018-09-15T03:59:47.615Z,101012.27
2018-09-15T04:02:20.930Z,101013.44
2018-09-15T04:04:54.603Z,101010.88
2018-09-15T04:07:27.906Z,101012.92
2018-09-15T04:10:01.242Z,101016.70
2018-09-15T04:12:34.550Z,101010.72
2018-09-15T04:15:07.874Z,101013.94
2018-09-15T04:17:41.182Z,101017.72
2018-09-15T04:20:14.509Z,101009.19
2018-09-15T04:22:47.815Z,101017.26
2018-09-15T04:25:21.201Z,101024.83
2018-09-15T04:27:54.478Z,101022.69
2018-09-15T04:30:27.830Z,101030.39
2018-09-15T04:33:01.192Z,101032.13
2018-09-15T04:35:34.518Z,101031.30
2018-09-15T04:38:07.883Z,101034.65
2018-09-15T04:40:41.231Z,101041.05
2018-09-15T04:43:14.573Z,101040.13
2018-09-15T04:45:47.894Z,101040.92
2018-09-15T04:48:21.245Z,101047.31
2018-09-15T04:50:54.613Z,101042.18
2018-09-15T04:53:27.967Z,101052.45
2018-09-15T04:56:01.371Z,101048.42
2018-09-15T04:58:34.937Z,101051.30
2018-09-15T05:01:08.268Z,101047.44
2018-09-15T05:03:42.077Z,101046.91
2018-09-15T05:06:16.099Z,101057.95
2018-09-15T05:08:50.853Z,101056.61
2018-09-15T05:11:24.313Z,101057.05
2018-09-15T05:13:57.702Z,101063.20
2018-09-15T05:16:31.709Z,101062.39
2018-09-15T05:19:05.046Z,101064.56
2018-09-15T05:21:38.420Z,101068.95
2018-09-15T05:24:11.744Z,101069.98
2018-09-15T05:26:45.081Z,101067.86
2018-09-15T05:29:18.422Z,101070.55
2018-09-15T05:31:51.722Z,101065.81
2018-09-15T05:34:25.077Z,101068.45
2018-09-15T05:36:58.534Z,101073.31
2018-09-15T05:39:31.934Z,101075.89
2018-09-15T05:42:05.253Z,101078.97
2018-09-15T05:44:38.570Z,101079.81
2018-09-15T05:47:11.874Z,101090.01
2018-09-15T05:49:45.232Z,101093.99
2018-09-15T05:52:18.614Z,101094.35
2018-09-15T05:54:52.070Z,101094.23
2018-09-15T05:57:25.525Z,101101.47
2018-09-15T05:59:58.922Z,101103.86
2018-09-15T06:02:32.257Z,101110.61
2018-09-15T06:05:05.590Z,101110.07
2018-09-15T06:07:38.972Z,101110.63
2018-09-15T06:10:12.325Z,101116.26
2018-09-15T06:12:45.704Z,101113.73
2018-09-15T06:15:18.989Z,101119.48
2018-09-15T06:17:52.313Z,101119.61
2018-09-15T06:20:25.592Z,101117.54
2018-09-15T06:22:58.911Z,101120.16
2018-09-15T06:25:32.211Z,101117.22
2018-09-15T06:28:05.574Z,101124.44
2018-09-15T06:30:38.932Z,101119.58
2018-09-15T06:33:12.227Z,101121.79
2018-09-15T06:35:45.587Z,101126.71
2018-09-15T06:38:18.951Z,101133.32
2018-09-15T06:40:53.558Z,101128.78
2018-09-15T06:43:27.666Z,101141.87
2018-09-15T06:46:01.041Z,101138.72
2018-09-15T06:48:34.349Z,101143.81
2018-09-15T06:51:08.087Z,101138.72
2018-09-15T06:53:42.757Z,101146.39
2018-09-15T06:56:16.240Z,101146.52
2018-09-15T06:58:49.746Z,101155.45
2018-09-15T07:01:23.193Z,101157.00
2018-09-15T07:03:57.014Z,101158.95
2018-09-15T07:06:30.389Z,101161.70
2018-09-15T07:09:04.237Z,101154.22
2018-09-15T07:11:38.062Z,101157.83
2018-09-15T07:14:11.719Z,101163.14
2018-09-15T07:16:45.145Z,101168.57
2018-09-15T07:19:18.553Z,101160.83
2018-09-15T07:21:52.922Z,101167.73
2018-09-15T07:24:26.364Z,101166.22
2018-09-15T07:26:59.708Z,101172.36
2018-09-15T07:29:33.142Z,101168.63
2018-09-15T07:32:06.565Z,101163.11
2018-09-15T07:34:39.953Z,101164.57
2018-09-15T07:37:13.337Z,101168.70
2018-09-15T07:39:46.648Z,101171.56
2018-09-15T07:42:19.997Z,101162.14
2018-09-15T07:44:53.488Z,101159.56
2018-09-15T07:47:26.831Z,101170.39
2018-09-15T07:50:00.217Z,101175.90
2018-09-15T07:52:33.525Z,101177.91
2018-09-15T07:55:06.874Z,101181.00
2018-09-15T07:57:40.316Z,101179.32
2018-09-15T08:00:13.652Z,101187.12
2018-09-15T08:02:46.982Z,101193.14
2018-09-15T08:05:20.306Z,101206.23
2018-09-15T08:07:53.605Z,101207.52
2018-09-15T08:10:26.981Z,101210.48
2018-09-15T08:13:00.334Z,101207.72
2018-09-15T08:15:33.629Z,101202.03
2018-09-15T08:18:06.961Z,101199.86
2018-09-15T08:20:40.341Z,101212.97
2018-09-15T08:23:13.626Z,101205.64
2018-09-15T08:25:46.987Z,101209.41
2018-09-15T08:28:20.394Z,101204.77
2018-09-15T08:30:54.113Z,101214.52
2018-09-15T08:33:28.557Z,101211.16
2018-09-15T08:36:02.174Z,101212.92
2018-09-15T08:38:35.638Z,101214.45
2018-09-15T08:41:08.969Z,101211.08
2018-09-15T08:43:42.734Z,101212.45
2018-09-15T08:46:16.513Z,101213.88
2018-09-15T08:48:49.978Z,101217.82
2018-09-15T08:51:23.353Z,101220.50
2018-09-15T08:53:56.713Z,101222.02
2018-09-15T08:56:30.021Z,101219.41
2018-09-15T08:59:03.355Z,101229.71
2018-09-15T09:01:36.654Z,101235.38
2018-09-15T09:04:10.049Z,101231.95
2018-09-15T09:06:43.345Z,101230.98
2018-09-15T09:09:16.658Z,101236.67
2018-09-15T09:11:49.994Z,101228.94
2018-09-15T09:14:23.289Z,101237.34
2018-09-15T09:16:56.712Z,101237.81
2018-09-15T09:19:30.057Z,101245.88
2018-09-15T09:22:03.344Z,101243.97
2018-09-15T09:24:36.645Z,101245.05
2018-09-15T09:27:09.934Z,101236.52
2018-09-15T09:29:43.242Z,101238.27
2018-09-15T09:32:16.593Z,101235.11
2018-09-15T09:34:49.979Z,101245.58
2018-09-15T09:37:23.353Z,101244.23
2018-09-15T09:39:56.769Z,101246.40
2018-09-15T09:42:30.102Z,101247.42
2018-09-15T09:45:03.518Z,101247.12
2018-09-15T09:47:36.824Z,101252.80
2018-09-15T09:50:10.148Z,101250.32
2018-09-15T09:52:43.550Z,101256.23
2018-09-15T09:55:16.864Z,101265.26
2018-09-15T09:57:50.150Z,101253.53
2018-09-15T10:00:28.874Z,101257.70
2018-09-15T10:03:02.237Z,101264.66
2018-09-15T10:05:36.614Z,101257.28
2018-09-15T10:08:10.019Z,101263.13
2018-09-15T10:10:43.379Z,101258.38
2018-09-15T10:13:16.949Z,101252.73
2018-09-15T10:15:50.414Z,101249.70
2018-09-15T10:18:23.673Z,101252.19
2018-09-15T10:20:56.985Z,101248.75
2018-09-15T10:23:30.280Z,101244.67
2018-09-15T10:26:03.592Z,101248.72
2018-09-15T10:28:36.908Z,101257.90
2018-09-15T10:31:10.209Z,101247.84
2018-09-15T10:33:43.604Z,101250.70
2018-09-15T10:36:16.918Z,101252.97
2018-09-15T10:38:50.209Z,101245.84
2018-09-15T10:41:23.509Z,101246.44
2018-09-15T10:43:56.917Z,101243.13
2018-09-15T10:46:30.289Z,101245.61
2018-09-15T10:49:03.694Z,101253.58
2018-09-15T10:51:37.005Z,101256.68
2018-09-15T10:54:10.385Z,101253.59
2018-09-15T10:56:43.710Z,101245.42
2018-09-15T10:59:17.064Z,101252.77
2018-09-15T11:01:50.381Z,101262.17
2018-09-15T11:04:23.897Z,101270.09
2018-09-15T11:06:57.267Z,101269.14
2018-09-15T11:09:30.553Z,101258.67
2018-09-15T11:12:03.915Z,101265.95
2018-09-15T11:14:37.254Z,101275.92
2018-09-15T11:17:10.560Z,101274.19
2018-09-15T11:19:43.909Z,101280.74
2018-09-15T11:22:17.260Z,101271.45
2018-09-15T11:24:50.713Z,101273.06
2018-09-15T11:27:24.123Z,101279.45
2018-09-15T11:29:57.555Z,101269.84
2018-09-15T11:32:30.877Z,101270.05
2018-09-15T11:35:04.331Z,101270.94
2018-09-15T11:37:38.453Z,101268.28
2018-09-15T11:40:12.093Z,101265.70
2018-09-15T11:42:46.756Z,101271.20
2018-09-15T11:45:20.129Z,101276.14
2018-09-15T11:47:53.464Z,101286.19
2018-09-15T11:50:26.733Z,101283.21
2018-09-15T11:53:00.188Z,101278.01
2018-09-15T11:55:33.560Z,101289.70
2018-09-15T11:58:06.878Z,101286.50
2018-09-15T12:00:43.646Z,101281.43
2018-09-15T12:03:17.010Z,101292.62
2018-09-15T12:05:50.394Z,101287.94
2018-09-15T12:08:23.709Z,101292.23
2018-09-15T12:10:57.029Z,101296.33
2018-09-15T12:13:30.484Z,101299.46
2018-09-15T12:16:03.801Z,101296.98
2018-09-15T12:18:37.117Z,101298.50
2018-09-15T12:21:10.461Z,101296.36
2018-09-15T12:23:43.889Z,101290.28
2018-09-15T12:26:17.288Z,101291.95
2018-09-15T12:28:50.693Z,101296.47
2018-09-15T12:31:24.005Z,101291.83
2018-09-15T12:33:57.401Z,101290.64
2018-09-15T12:36:30.754Z,101290.00
2018-09-15T12:39:04.890Z,101281.70
2018-09-15T12:41:38.298Z,101282.83
2018-09-15T12:44:11.627Z,101289.41
2018-09-15T12:46:45.303Z,101287.84
2018-09-15T12:49:18.899Z,101278.73
2018-09-15T12:51:52.642Z,101277.30
2018-09-15T12:54:26.165Z,101267.67
2018-09-15T12:56:59.927Z,101275.90
2018-09-15T12:59:33.607Z,101269.20
2018-09-15T13:02:07.354Z,101260.10
2018-09-15T13:04:41.265Z,101260.34
2018-09-15T13:07:15.538Z,101267.47
2018-09-15T13:09:49.079Z,101269.46
2018-09-15T13:12:22.918Z,101274.17
2018-09-15T13:14:56.747Z,101267.83
2018-09-15T13:17:30.858Z,101277.11
2018-09-15T13:20:04.619Z,101276.30
2018-09-15T13:22:37.984Z,101269.84
2018-09-15T13:25:11.598Z,101272.30
2018-09-15T13:27:45.058Z,101269.87
2018-09-15T13:30:18.715Z,101270.83
2018-09-15T13:32:52.518Z,101276.03
2018-09-15T13:35:26.621Z,101271.20
2018-09-15T13:38:00.599Z,101265.45
2018-09-15T13:40:34.943Z,101269.19
2018-09-15T13:43:08.598Z,101273.24
2018-09-15T13:45:42.527Z,101280.18
2018-09-15T13:48:16.581Z,101276.34
2018-09-15T13:50:50.274Z,101275.55
2018-09-15T13:53:24.376Z,101275.77
2018-09-15T13:55:57.991Z,101287.20
2018-09-15T13:58:31.555Z,101293.39
2018-09-15T14:01:05.126Z,101283.69
2018-09-15T14:03:38.747Z,101285.48
2018-09-15T14:06:12.354Z,101289.43
2018-09-15T14:08:45.937Z,101286.00
2018-09-15T14:11:19.596Z,101283.80
2018-09-15T14:13:53.117Z,101280.30
2018-09-15T14:16:26.656Z,101283.36
2018-09-15T14:19:00.281Z,101281.12
2018-09-15T14:21:33.841Z,101284.48
2018-09-15T14:24:07.399Z,101283.36
2018-09-15T14:26:40.927Z,101291.52
2018-09-15T14:29:14.594Z,101291.84
2018-09-15T14:31:48.110Z,101288.44
2018-09-15T14:34:21.622Z,101292.50
2018-09-15T14:36:55.216Z,101291.20
2018-09-15T14:39:28.740Z,101295.07
2018-09-15T14:42:02.229Z,101299.78
2018-09-15T14:44:35.737Z,101300.88
2018-09-15T14:47:09.177Z,101299.53
2018-09-15T14:49:42.501Z,101314.71
2018-09-15T14:52:15.805Z,101322.20
2018-09-15T14:54:49.101Z,101324.87
2018-09-15T14:57:22.505Z,101333.23
2018-09-15T14:59:55.949Z,101340.03
2018-09-15T15:02:30.098Z,101338.45
2018-09-15T15:05:03.426Z,101348.02
2018-09-15T15:07:36.845Z,101361.00
2018-09-15T15:10:10.218Z,101377.27
2018-09-15T15:12:43.567Z,101388.79
2018-09-15T15:15:16.991Z,101381.50
2018-09-15T15:17:50.273Z,101387.50
2018-09-15T15:20:23.600Z,101396.67
2018-09-15T15:22:56.979Z,101388.52
2018-09-15T15:25:30.331Z,101383.52
2018-09-15T15:28:03.624Z,101385.73
2018-09-15T15:30:37.257Z,101383.83
2018-09-15T15:33:10.555Z,101367.49
2018-09-15T15:35:43.893Z,101372.36
2018-09-15T15:38:17.205Z,101369.11
2018-09-15T15:40:50.598Z,101364.86
2018-09-15T15:43:23.911Z,101365.09
2018-09-15T15:45:57.234Z,101360.14
2018-09-15T15:48:30.521Z,101359.67
2018-09-15T15:51:03.855Z,101365.09
2018-09-15T15:53:37.229Z,101367.45
2018-09-15T15:56:10.634Z,101360.55
2018-09-15T15:58:44.072Z,101373.05
2018-09-15T16:01:17.266Z,101375.78
2018-09-15T16:03:51.141Z,101372.20
2018-09-15T16:06:24.469Z,101375.45
2018-09-15T16:08:57.782Z,101375.20
2018-09-15T16:11:31.128Z,101373.59
2018-09-15T16:14:04.422Z,101369.23
2018-09-15T16:16:37.952Z,101372.75
2018-09-15T16:19:11.474Z,101372.43
2018-09-15T16:21:44.809Z,101365.90
2018-09-15T16:24:18.165Z,101368.41
2018-09-15T16:26:51.477Z,101375.66
2018-09-15T16:29:24.811Z,101374.83
2018-09-15T16:31:58.121Z,101378.91
2018-09-15T16:34:31.413Z,101381.26
2018-09-15T16:37:04.777Z,101388.41
2018-09-15T16:39:38.105Z,101388.64
2018-09-15T16:42:11.393Z,101384.41
2018-09-15T16:44:44.804Z,101384.66
2018-09-15T16:47:18.128Z,101390.97
2018-09-15T16:49:51.434Z,101395.45
2018-09-15T16:52:25.141Z,101385.80
2018-09-15T16:54:59.556Z,101389.95
2018-09-15T16:57:32.946Z,101389.23
2018-09-15T17:00:06.297Z,101396.80
2018-09-15T17:02:39.596Z,101393.20
2018-09-15T17:05:12.917Z,101390.66
2018-09-15T17:07:46.200Z,101391.74
2018-09-15T17:10:19.530Z,101393.06
2018-09-15T17:12:52.944Z,101384.88
2018-09-15T17:15:26.325Z,101402.42
2018-09-15T17:17:59.727Z,101392.02
2018-09-15T17:20:33.170Z,101401.08
2018-09-15T17:23:06.506Z,101397.20
2018-09-15T17:25:39.898Z,101404.51
2018-09-15T17:28:13.237Z,101405.47
2018-09-15T17:30:46.628Z,101403.08
2018-09-15T17:33:20.087Z,101411.16
2018-09-15T17:35:53.414Z,101414.34
2018-09-15T17:38:26.709Z,101418.03
2018-09-15T17:41:00.113Z,101423.06
2018-09-15T17:43:33.417Z,101428.52
2018-09-15T17:46:06.933Z,101434.45
2018-09-15T17:48:40.221Z,101437.53
2018-09-15T17:51:13.561Z,101439.16
2018-09-15T17:53:46.995Z,101444.21
2018-09-15T17:56:20.389Z,101448.48
2018-09-15T17:58:53.701Z,101454.41
2018-09-15T18:01:27.018Z,101446.02
2018-09-15T18:04:00.321Z,101452.77
2018-09-15T18:06:33.638Z,101452.67
2018-09-15T18:09:07.701Z,101457.66
2018-09-15T18:11:41.049Z,101460.06
2018-09-15T18:14:14.459Z,101460.37
2018-09-15T18:16:47.796Z,101460.25
2018-09-15T18:19:21.178Z,101460.45
2018-09-15T18:21:54.571Z,101463.20
2018-09-15T18:24:27.897Z,101461.27
2018-09-15T18:27:01.258Z,101472.62
2018-09-15T18:29:34.546Z,101472.43
2018-09-15T18:32:07.884Z,101476.37
2018-09-15T18:34:41.230Z,101480.23
2018-09-15T18:37:14.618Z,101481.98
2018-09-15T18:39:47.918Z,101485.40
2018-09-15T18:42:21.332Z,101493.14
2018-09-15T18:44:54.613Z,101491.85
2018-09-15T18:47:28.001Z,101489.42
2018-09-15T18:50:01.305Z,101491.59
2018-09-15T18:52:34.633Z,101499.78
2018-09-15T18:55:07.957Z,101497.59
2018-09-15T18:57:41.300Z,101501.87
2018-09-15T19:00:14.619Z,101502.33
2018-09-15T19:02:47.994Z,101512.33
2018-09-15T19:05:21.325Z,101516.86
2018-09-15T19:07:54.633Z,101514.83
2018-09-15T19:10:27.945Z,101517.98
2018-09-15T19:13:01.368Z,101516.84
2018-09-15T19:15:34.644Z,101520.02
2018-09-15T19:18:07.941Z,101525.27
2018-09-15T19:20:41.321Z,101516.41
2018-09-15T19:23:14.733Z,101515.33
2018-09-15T19:25:48.174Z,101518.17
2018-09-15T19:28:21.481Z,101520.97
2018-09-15T19:30:54.796Z,101525.07
2018-09-15T19:33:28.737Z,101527.59
2018-09-15T19:36:02.049Z,101530.17
2018-09-15T19:38:35.859Z,101531.80
2018-09-15T19:41:09.169Z,101529.91
2018-09-15T19:43:42.541Z,101530.58
2018-09-15T19:46:16.804Z,101531.67
2018-09-15T19:48:50.829Z,101539.52
2018-09-15T19:51:24.588Z,101538.87
2018-09-15T19:53:58.803Z,101539.42
2018-09-15T19:56:32.797Z,101543.09
2018-09-15T19:59:06.602Z,101548.83
2018-09-15T20:01:40.285Z,101550.61
2018-09-15T20:04:13.825Z,101553.70
2018-09-15T20:06:49.045Z,101553.56
2018-09-15T20:09:22.384Z,101559.34
2018-09-15T20:11:56.095Z,101560.31
2018-09-15T20:14:29.809Z,101554.83
2018-09-15T20:17:02.011Z,101561.49
2018-09-15T20:19:34.250Z,101557.72
2018-09-15T20:22:07.655Z,101553.51
2018-09-15T20:24:41.231Z,101552.30
2018-09-15T20:27:14.629Z,101563.52
2018-09-15T20:29:48.057Z,101564.02
2018-09-15T20:32:22.748Z,101566.31
2018-09-15T20:34:56.280Z,101568.48
2018-09-15T20:37:29.710Z,101567.63
2018-09-15T20:40:03.102Z,101571.20
2018-09-15T20:42:36.518Z,101575.60
2018-09-15T20:45:09.945Z,101575.67
2018-09-15T20:47:43.258Z,101578.78
2018-09-15T20:50:17.621Z,101582.74
2018-09-15T20:52:52.012Z,101587.13
2018-09-15T20:55:25.663Z,101582.95
2018-09-15T20:57:59.699Z,101583.03
2018-09-15T21:00:33.840Z,101586.60
2018-09-15T21:03:07.642Z,101588.38
2018-09-15T21:05:41.033Z,101581.66
2018-09-15T21:08:15.213Z,101580.06
2018-09-15T21:10:48.861Z,101580.55
2018-09-15T21:13:22.633Z,101584.45
2018-09-15T21:15:56.700Z,101582.02
2018-09-15T21:18:29.997Z,101586.35
2018-09-15T21:21:03.694Z,101589.84
2018-09-15T21:23:38.174Z,101594.98
2018-09-15T21:26:11.681Z,101587.41
2018-09-15T21:28:46.469Z,101595.12
2018-09-15T21:31:19.808Z,101590.47
2018-09-15T21:33:53.591Z,101594.80
2018-09-15T21:36:26.905Z,101587.19
2018-09-15T21:39:00.601Z,101593.59
2018-09-15T21:41:34.366Z,101590.23
2018-09-15T21:44:08.309Z,101591.52
2018-09-15T21:46:42.025Z,101594.96
2018-09-15T21:49:15.730Z,101596.24
2018-09-15T21:51:49.194Z,101590.75
2018-09-15T21:54:22.494Z,101593.33
2018-09-15T21:56:55.809Z,101596.41
2018-09-15T21:59:29.106Z,101602.05
2018-09-15T22:02:02.405Z,101603.48
2018-09-15T22:04:35.702Z,101606.02
2018-09-15T22:07:09.096Z,101602.57
2018-09-15T22:09:42.400Z,101605.98
2018-09-15T22:12:15.738Z,101610.27
2018-09-15T22:14:49.102Z,101600.41
2018-09-15T22:17:22.398Z,101604.69
2018-09-15T22:19:55.739Z,101603.41
2018-09-15T22:22:29.821Z,101600.00
2018-09-15T22:25:03.927Z,101600.04
2018-09-15T22:27:37.984Z,101613.70
2018-09-15T22:30:11.318Z,101608.20
2018-09-15T22:32:45.100Z,101613.30
2018-09-15T22:35:18.681Z,101615.39
2018-09-15T22:37:52.148Z,101616.67
2018-09-15T22:40:25.529Z,101612.42
2018-09-15T22:42:58.828Z,101609.90
2018-09-15T22:45:32.149Z,101607.77
2018-09-15T22:48:05.454Z,101613.37
2018-09-15T22:50:38.769Z,101616.78
2018-09-15T22:53:12.107Z,101617.66
2018-09-15T22:55:45.397Z,101615.57
2018-09-15T22:58:18.765Z,101622.86
2018-09-15T23:00:52.082Z,101622.05
2018-09-15T23:03:25.407Z,101619.96
2018-09-15T23:05:58.812Z,101622.52
2018-09-15T23:08:32.166Z,101623.40
2018-09-15T23:11:06.084Z,101615.74
2018-09-15T23:13:39.352Z,101614.46
2018-09-15T23:16:12.761Z,101619.22
2018-09-15T23:18:46.041Z,101623.09
2018-09-15T23:21:19.373Z,101620.56
2018-09-15T23:23:52.705Z,101622.72
2018-09-15T23:26:26.053Z,101618.47
2018-09-15T23:28:59.362Z,101620.59
2018-09-15T23:31:32.741Z,101618.03
2018-09-15T23:34:06.122Z,101618.94
2018-09-15T23:36:39.426Z,101618.09
2018-09-15T23:39:12.704Z,101617.25
2018-09-15T23:41:46.025Z,101619.03
2018-09-15T23:44:19.303Z,101622.06
2018-09-15T23:46:52.598Z,101625.09
2018-09-15T23:49:25.904Z,101622.12
2018-09-15T23:51:59.297Z,101620.43
2018-09-15T23:54:33.075Z,101614.89
2018-09-15T23:57:06.392Z,101608.12
2018-09-15T23:59:40.096Z,101604.34
